Baxter, Tennessee
Current Conditions -  °F | °C
As of 1:15 PM on Friday 28 Nov 2014 (Local Time) from KSRB Reporting Station
Clear Clear  
Wind Chill: 40°   Ceiling: Unl
Heat Index: 43°   Visibility: 10mi
Dew Point: 19°   Wind: 5mph
Humidity: 39%   Direction: 150°SSE
Pressure: 30.28"   Gusts: NA
Location:  36.15°N, 85.64°W
Report Text: KSRB 281915Z AUTO 15004KT 10SM CLR 06/M07 A3028 RMK
Loading
Personal Weather Stations






























Interactive Weather Map New forecast layout! Learn more

10-Day Weather Forecast

Advertisements
Track Severe Weather on mobile